Time;durP1;ratioP1;P1;durP2;ratioP2;P2;SDS_P1;SDS_P2;PMS_P1;PMS_P2;Temp;Humidity;BMP_temperature;BMP_pressure;BME280_temperature;BME280_humidity;BME280_pressure;Samples;Min_cycle;Max_cycle;Signal;HPM_P1;HPM_P2
2022/06/10 00:01:03;;;;;;;1.40;1.30;;;;;;;20.15;72.54;97650.84;6133805;23;20170;-91
2022/06/10 00:03:30;;;;;;;1.10;1.10;;;;;;;21.39;72.53;97866.56;6181944;23;20166;-91
2022/06/10 00:05:59;;;;;;;1.10;1.10;;;;;;;20.66;72.60;97735.28;6133168;23;20178;-91
2022/06/10 00:08:28;;;;;;;1.10;1.10;;;;;;;20.92;72.84;97793.28;6181395;23;20174;-91
2022/06/10 00:10:55;;;;;;;1.10;1.10;;;;;;;20.41;72.84;97688.38;6157187;23;20189;-91
2022/06/10 00:13:23;;;;;;;1.20;1.20;;;;;;;20.32;72.61;97675.28;6181985;23;20186;-91
2022/06/10 00:15:55;;;;;;;1.30;1.20;;;;;;;20.40;72.58;97696.88;6181310;23;20205;-92
2022/06/10 00:18:23;;;;;;;1.07;1.07;;;;;;;21.14;72.80;97823.09;6133462;23;20170;-92
2022/06/10 00:20:49;;;;;;;1.30;1.20;;;;;;;20.49;72.74;97710.81;6133197;23;20163;-92
2022/06/10 00:23:16;;;;;;;1.10;1.10;;;;;;;20.42;72.73;97708.88;6133006;23;20170;-92
2022/06/10 00:25:43;;;;;;;1.10;1.10;;;;;;;20.49;72.65;97712.53;6132011;23;20207;-92
2022/06/10 00:28:10;;;;;;;1.23;1.13;;;;;;;21.08;72.72;97821.16;6154511;23;20525;-90
2022/06/10 00:30:37;;;;;;;1.20;1.20;;;;;;;20.40;72.65;97702.81;6132806;23;20214;-92
2022/06/10 00:33:04;;;;;;;1.27;1.23;;;;;;;21.23;72.88;97851.53;6157209;23;20217;-92
2022/06/10 00:35:31;;;;;;;1.27;1.17;;;;;;;20.54;72.45;97732.28;6132937;23;20193;-91
2022/06/10 00:37:58;;;;;;;1.00;1.00;;;;;;;21.09;72.70;97829.69;6157328;23;20192;-91
2022/06/10 00:40:31;;;;;;;0.97;0.97;;;;;;;20.40;72.78;97724.94;6133095;23;20154;-91
2022/06/10 00:42:58;;;;;;;0.97;0.97;;;;;;;20.01;72.45;97637.53;6133473;23;20151;-91
2022/06/10 00:45:51;;;;;;;1.20;1.10;;;;;;;21.82;72.76;97955.94;6156620;23;20146;-91
2022/06/10 00:48:47;;;;;;;1.07;1.07;;;;;;;21.82;72.83;97951.72;6181307;23;20162;-91
2022/06/10 00:51:36;;;;;;;1.17;1.17;;;;;;;21.82;72.79;97951.72;6149290;23;20178;-92
2022/06/10 00:54:24;;;;;;;1.83;1.40;;;;;;;21.83;72.71;97950.00;6180857;23;20170;-92
2022/06/10 00:56:58;;;;;;;1.00;1.00;;;;;;;20.66;72.82;97742.94;6180015;23;20185;-91
2022/06/10 00:59:29;;;;;;;1.40;1.30;;;;;;;20.77;72.73;97769.75;6158088;23;20178;-91
2022/06/10 01:01:58;;;;;;;1.10;1.10;;;;;;;21.01;72.85;97810.66;6156180;23;20158;-92
2022/06/10 01:04:26;;;;;;;1.20;1.10;;;;;;;20.75;72.96;97762.84;6179620;23;20174;-92
2022/06/10 01:06:52;;;;;;;1.10;1.10;;;;;;;21.15;72.46;97840.13;6132137;23;20526;-91
2022/06/10 01:09:19;;;;;;;1.20;1.20;;;;;;;20.35;72.55;97713.69;6156541;23;20163;-91
2022/06/10 01:12:13;;;;;;;1.00;1.00;;;;;;;21.81;72.86;97944.84;6132648;23;20158;-92
2022/06/10 01:14:57;;;;;;;1.20;1.20;;;;;;;21.14;72.70;97838.41;6181518;23;20143;-91
2022/06/10 01:17:43;;;;;;;1.10;1.10;;;;;;;21.81;72.83;97946.50;6181042;23;20194;-90
2022/06/10 01:20:34;;;;;;;1.10;1.10;;;;;;;20.97;72.48;97822.47;6180327;23;20157;-90
2022/06/10 01:23:21;;;;;;;1.07;1.07;;;;;;;21.81;72.98;97949.94;6157867;23;20197;-92
2022/06/10 01:26:22;;;;;;;1.33;1.27;;;;;;;21.81;72.79;97951.63;6156054;23;20182;-91
2022/06/10 01:29:02;;;;;;;1.10;1.10;;;;;;;21.53;72.64;97926.75;6181846;23;20151;-91
2022/06/10 01:31:35;;;;;;;1.10;1.10;;;;;;;21.02;72.50;97835.41;6156529;23;20155;-91
2022/06/10 01:34:02;;;;;;;1.13;1.13;;;;;;;21.82;72.75;97959.38;6180422;23;20158;-91
2022/06/10 01:36:43;;;;;;;1.00;1.00;;;;;;;21.82;72.87;97956.84;6180218;23;20179;-91
2022/06/10 01:39:29;;;;;;;1.20;1.20;;;;;;;21.82;72.81;97958.50;6180723;23;20163;-92
2022/06/10 01:42:22;;;;;;;1.00;1.00;;;;;;;20.88;72.67;97805.91;6181056;23;20189;-92
2022/06/10 01:44:58;;;;;;;1.00;1.00;;;;;;;21.82;72.79;97961.06;6158425;23;20193;-91
2022/06/10 01:47:46;;;;;;;1.10;1.10;;;;;;;21.81;72.61;97954.19;6181605;23;20193;-92
2022/06/10 01:50:21;;;;;;;1.10;1.10;;;;;;;20.93;72.71;97818.00;6181147;23;20150;-92
2022/06/10 01:52:53;;;;;;;1.00;1.00;;;;;;;20.54;72.80;97760.38;6157921;23;20174;-92
2022/06/10 01:55:42;;;;;;;1.13;1.13;;;;;;;21.80;72.70;97962.69;6131921;23;20175;-92
2022/06/10 01:58:20;;;;;;;1.20;1.20;;;;;;;21.79;72.72;97961.81;6181013;23;20181;-91
2022/06/10 02:00:48;;;;;;;1.10;1.10;;;;;;;21.14;72.78;97864.81;6180611;23;20215;-92
2022/06/10 02:03:43;;;;;;;1.10;1.10;;;;;;;20.49;72.78;97748.25;6156820;23;20190;-92
2022/06/10 02:06:17;;;;;;;1.20;1.20;;;;;;;20.27;72.71;97698.09;6180405;23;20186;-91
2022/06/10 02:08:47;;;;;;;1.00;1.00;;;;;;;20.84;72.70;97804.06;6155384;23;20173;-91
2022/06/10 02:11:15;;;;;;;1.00;1.00;;;;;;;20.84;72.68;97812.56;6156924;23;20178;-91
2022/06/10 02:14:16;;;;;;;1.10;1.10;;;;;;;21.82;72.80;97972.19;6131621;23;20186;-91
2022/06/10 02:16:44;;;;;;;1.10;1.10;;;;;;;21.70;72.82;97956.34;6095385;23;20379;-91
2022/06/10 02:19:33;;;;;;;1.07;1.07;;;;;;;21.81;72.84;97978.09;6155718;23;20175;-91
2022/06/10 02:22:09;;;;;;;1.60;1.50;;;;;;;20.50;72.71;97784.06;6180623;23;20167;-92
2022/06/10 02:24:40;;;;;;;1.17;1.07;;;;;;;20.05;72.60;97671.69;6157071;23;20165;-92
2022/06/10 02:27:13;;;;;;;1.20;1.20;;;;;;;20.41;72.62;97770.06;6156134;23;20186;-91
2022/06/10 02:29:49;;;;;;;1.40;1.30;;;;;;;21.10;72.72;97880.88;6157466;23;20172;-91
2022/06/10 02:32:15;;;;;;;1.20;1.20;;;;;;;20.85;72.63;97833.91;6180282;23;20178;-90
2022/06/10 02:34:45;;;;;;;1.03;1.00;;;;;;;21.12;72.79;97886.91;6155648;23;20173;-91
2022/06/10 02:37:26;;;;;;;1.10;1.10;;;;;;;20.87;72.77;97835.69;6131421;23;20233;-92
2022/06/10 02:40:09;;;;;;;1.00;1.00;;;;;;;20.27;72.58;97750.81;6156419;23;20158;-92
2022/06/10 02:42:38;;;;;;;1.03;1.03;;;;;;;21.07;72.45;97887.53;6158608;23;20166;-91
2022/06/10 02:45:27;;;;;;;1.00;1.00;;;;;;;21.80;72.71;97996.84;6131667;23;20170;-92
2022/06/10 02:48:11;;;;;;;1.10;1.10;;;;;;;20.41;72.66;97783.72;6182333;23;20170;-92
2022/06/10 02:50:38;;;;;;;1.40;1.10;;;;;;;21.02;72.47;97894.19;6182179;23;20150;-91
2022/06/10 02:53:06;;;;;;;1.07;1.03;;;;;;;21.37;72.51;97934.66;6182531;23;20197;-91
2022/06/10 02:55:33;;;;;;;1.10;1.10;;;;;;;20.35;72.77;97754.53;6157982;23;20178;-92
2022/06/10 03:01:13;;;;;;;1.10;1.10;;;;;;;20.21;72.71;97746.34;6164505;23;20182;-92
2022/06/10 03:04:09;;;;;;;1.10;1.10;;;;;;;21.73;72.78;98015.28;6182474;23;20146;-92
2022/06/10 03:06:59;;;;;;;1.00;1.00;;;;;;;21.79;72.71;98030.88;6131514;23;20198;-91
2022/06/10 03:09:41;;;;;;;1.30;1.20;;;;;;;20.59;72.50;97830.38;6182281;23;20154;-92
2022/06/10 03:12:28;;;;;;;1.00;1.00;;;;;;;19.91;72.38;97730.72;6159658;23;20163;-92
2022/06/10 03:15:33;;;;;;;1.07;1.07;;;;;;;20.58;72.86;97833.75;6182097;23;20174;-91
2022/06/10 03:18:26;;;;;;;1.00;1.00;;;;;;;20.70;72.85;97862.31;6183161;23;20221;-92
2022/06/10 03:21:25;;;;;;;1.10;1.10;;;;;;;20.05;72.68;97749.13;6175642;23;20162;-92
2022/06/10 03:24:00;;;;;;;1.10;1.10;;;;;;;21.80;72.59;98042.00;6137216;23;20147;-92
2022/06/10 03:26:27;;;;;;;1.30;1.20;;;;;;;21.81;72.80;98046.28;6182702;23;20202;-92
2022/06/10 03:29:10;;;;;;;1.00;1.00;;;;;;;21.80;72.65;98049.69;6183223;23;20146;-91
2022/06/10 03:31:39;;;;;;;1.33;1.23;;;;;;;20.83;72.62;97896.81;6182029;23;20169;-90
2022/06/10 03:34:20;;;;;;;1.00;1.00;;;;;;;21.80;72.74;98050.56;6157072;23;20174;-91
2022/06/10 03:36:46;;;;;;;1.10;1.10;;;;;;;20.41;72.62;97836.44;6156798;23;20190;-91
2022/06/10 03:39:13;;;;;;;1.10;1.10;;;;;;;19.76;72.60;97726.69;6181772;23;20158;-91
2022/06/10 03:41:41;;;;;;;1.00;1.00;;;;;;;20.70;72.94;97881.84;6157610;23;20162;-92
2022/06/10 03:44:14;;;;;;;1.10;1.10;;;;;;;20.98;72.73;97934.09;6157576;23;20166;-92
2022/06/10 03:46:41;;;;;;;1.27;1.20;;;;;;;20.44;72.68;97850.22;6133956;23;20193;-91
2022/06/10 03:49:10;;;;;;;0.90;0.90;;;;;;;20.18;72.47;97817.69;6157775;23;20166;-91
2022/06/10 03:51:37;;;;;;;1.00;1.00;;;;;;;20.40;72.63;97819.41;6157865;23;20178;-91
2022/06/10 03:54:04;;;;;;;1.07;1.07;;;;;;;21.15;72.69;97960.28;6157461;23;20210;-91
2022/06/10 03:56:31;;;;;;;1.00;1.00;;;;;;;20.66;72.74;97892.78;6157563;23;20178;-91
2022/06/10 03:58:58;;;;;;;1.10;1.10;;;;;;;20.85;72.58;97908.84;6133345;23;20279;-91
2022/06/10 04:01:24;;;;;;;1.10;1.10;;;;;;;21.27;72.69;97994.84;6157727;23;20186;-93
2022/06/10 04:03:51;;;;;;;1.00;1.00;;;;;;;21.42;72.59;98041.44;6157222;23;20154;-92
2022/06/10 04:06:18;;;;;;;1.17;1.17;;;;;;;20.55;72.40;97877.03;6157219;23;20194;-90
2022/06/10 04:09:05;;;;;;;1.23;1.23;;;;;;;21.30;72.78;98012.84;6161476;23;20190;-90
2022/06/10 04:11:32;;;;;;;1.20;1.20;;;;;;;20.99;72.57;97975.84;6181780;23;20194;-91
2022/06/10 04:13:59;;;;;;;1.10;1.10;;;;;;;20.24;72.67;97830.69;6156227;23;20217;-92
2022/06/10 04:16:28;;;;;;;1.00;1.00;;;;;;;20.71;72.56;97921.91;6181511;23;20182;-92
2022/06/10 04:18:56;;;;;;;1.10;1.10;;;;;;;21.27;72.68;98020.41;6135107;23;20182;-91
2022/06/10 04:21:23;;;;;;;1.13;1.10;;;;;;;20.04;72.62;97821.34;6134952;23;20175;-92
2022/06/10 04:23:50;;;;;;;1.10;1.10;;;;;;;20.13;72.44;97821.72;6135305;23;20169;-90
2022/06/10 04:26:17;;;;;;;1.10;1.00;;;;;;;21.32;72.88;98048.69;6134512;23;20175;-89
2022/06/10 04:28:45;;;;;;;1.00;1.00;;;;;;;19.19;72.50;97681.00;6135412;23;20198;-91
2022/06/10 04:31:15;;;;;;;1.00;1.00;;;;;;;20.35;72.63;97869.41;6159089;23;20164;-91
2022/06/10 04:44:33;;;;;;;1.30;1.20;;;;;;;19.60;72.44;97776.19;6142950;23;20196;-89
2022/06/10 04:47:07;;;;;;;1.00;1.00;;;;;;;19.06;72.11;97673.66;6153159;23;20243;-93
2022/06/10 04:49:39;;;;;;;1.10;1.10;;;;;;;19.82;72.26;97783.94;6154680;23;20186;-89
2022/06/10 04:52:06;;;;;;;1.30;1.30;;;;;;;19.70;72.22;97785.97;6128086;23;20160;-91
2022/06/10 04:54:34;;;;;;;2.70;1.60;;;;;;;20.20;71.21;97862.00;6128552;23;20187;-92
2022/06/10 04:57:08;;;;;;;3.80;1.90;;;;;;;19.78;69.40;97806.69;6130676;23;20194;-92
2022/06/10 05:02:18;;;;;;;3.00;1.90;;;;;;;19.11;69.66;97697.66;6102749;23;20217;-92
2022/06/10 05:04:47;;;;;;;2.00;1.80;;;;;;;20.49;69.68;97920.16;6081583;23;20163;-91
2022/06/10 05:07:14;;;;;;;4.23;2.00;;;;;;;20.42;68.75;97909.66;6075493;23;20183;-91
2022/06/10 05:09:41;;;;;;;3.90;2.00;;;;;;;20.31;68.12;97903.28;6074315;23;20232;-91
2022/06/10 05:12:08;;;;;;;3.93;2.20;;;;;;;19.91;67.22;97832.75;6074710;23;20191;-91
2022/06/10 05:14:34;;;;;;;3.80;2.10;;;;;;;20.02;67.08;97857.00;6098178;23;20234;-91
2022/06/10 05:17:02;;;;;;;3.00;2.10;;;;;;;20.54;67.01;97936.56;6074814;23;20188;-91
2022/06/10 05:19:29;;;;;;;4.73;2.60;;;;;;;20.12;66.63;97848.03;6122120;23;20160;-92
2022/06/10 05:29:56;;;;;;;3.33;2.20;;;;;;;20.99;68.76;98027.81;6102454;23;20214;-91
2022/06/10 05:32:27;;;;;;;2.73;2.00;;;;;;;21.53;69.12;98106.63;6181113;23;20202;-93
2022/06/10 05:34:54;;;;;;;3.00;2.03;;;;;;;19.77;69.02;97803.25;6133310;23;20162;-92
2022/06/10 05:37:23;;;;;;;5.20;1.90;;;;;;;20.46;69.23;97930.25;6181866;23;20196;-92
2022/06/10 05:39:49;;;;;;;3.97;2.50;;;;;;;20.65;69.31;97965.94;6156846;23;20150;-92
2022/06/10 05:42:16;;;;;;;3.20;2.40;;;;;;;20.73;69.50;97986.69;6156238;23;20151;-92
2022/06/10 05:44:45;;;;;;;1.87;1.70;;;;;;;20.63;69.63;97957.34;6179853;23;20158;-92
2022/06/10 05:47:17;;;;;;;3.00;2.17;;;;;;;21.84;69.85;98162.44;6132601;23;20195;-92
2022/06/10 05:49:45;;;;;;;3.60;1.90;;;;;;;20.90;70.14;97993.34;6133231;23;20147;-92
2022/06/10 05:52:12;;;;;;;2.50;2.20;;;;;;;20.19;70.13;97888.31;6133442;23;20171;-91
2022/06/10 05:54:41;;;;;;;3.87;2.00;;;;;;;20.84;70.20;97993.94;6181810;23;20186;-91
2022/06/10 05:57:07;;;;;;;5.83;2.20;;;;;;;20.08;70.21;97856.41;6156912;23;20218;-91
2022/06/10 05:59:34;;;;;;;2.70;1.77;;;;;;;19.96;70.26;97836.34;6182562;23;20158;-92
2022/06/10 06:02:02;;;;;;;3.07;2.23;;;;;;;20.38;70.11;97920.56;6180274;23;20155;-90
2022/06/10 06:04:29;;;;;;;3.20;2.03;;;;;;;20.79;70.38;97982.69;6156269;23;20147;-92
2022/06/10 06:06:56;;;;;;;3.63;2.00;;;;;;;20.77;70.42;97983.44;6181675;23;20222;-91
2022/06/10 06:09:22;;;;;;;5.80;2.03;;;;;;;20.74;70.36;97991.84;6159991;23;20194;-91
2022/06/10 06:11:50;;;;;;;2.37;2.10;;;;;;;20.04;70.17;97884.28;6180908;23;20165;-91
2022/06/10 06:14:18;;;;;;;6.60;2.13;;;;;;;19.73;70.42;97818.38;6156904;23;20193;-92
2022/06/10 06:16:49;;;;;;;2.23;2.00;;;;;;;20.91;70.49;98018.06;6157106;23;20209;-91
2022/06/10 06:19:16;;;;;;;3.83;2.10;;;;;;;20.09;70.25;97891.28;6134423;23;20167;-93
2022/06/10 06:21:45;;;;;;;4.30;2.67;;;;;;;19.74;70.75;97809.91;6132997;23;20154;-92
2022/06/10 06:24:12;;;;;;;6.53;2.67;;;;;;;20.81;70.78;98000.66;6130859;23;20170;-93
2022/06/10 06:26:38;;;;;;;11.10;3.30;;;;;;;20.76;70.88;97991.91;6154743;23;20162;-91
2022/06/10 06:29:05;;;;;;;4.77;2.60;;;;;;;20.40;70.96;97932.56;6178087;23;20169;-92
2022/06/10 06:31:32;;;;;;;5.07;2.70;;;;;;;21.86;70.67;98176.19;6179036;23;20167;-92
2022/06/10 06:33:59;;;;;;;4.47;2.57;;;;;;;19.60;70.68;97796.59;6130043;23;20200;-92
2022/06/10 06:36:26;;;;;;;4.67;2.63;;;;;;;20.52;70.38;97948.38;6178063;23;20563;-91
2022/06/10 06:38:52;;;;;;;4.43;2.50;;;;;;;21.30;70.50;98104.00;6154344;23;20185;-91
2022/06/10 06:41:19;;;;;;;4.03;2.40;;;;;;;21.13;70.70;98066.69;6178841;23;20151;-92
2022/06/10 06:43:46;;;;;;;7.33;2.73;;;;;;;20.71;71.05;98001.94;6154566;23;20186;-91
2022/06/10 06:49:16;;;;;;;4.20;2.30;;;;;;;21.15;70.75;98068.50;6174361;23;20193;-92
2022/06/10 06:51:42;;;;;;;3.83;2.50;;;;;;;20.33;70.36;97916.94;6132221;23;20170;-91
2022/06/10 06:54:09;;;;;;;5.37;2.33;;;;;;;20.21;70.40;97902.03;6108050;23;20174;-92
2022/06/10 06:56:36;;;;;;;5.67;2.57;;;;;;;20.45;70.47;97965.94;6108113;23;20182;-91
2022/06/10 06:59:04;;;;;;;3.40;2.40;;;;;;;19.35;70.49;97758.16;6108457;23;20155;-92
2022/06/10 07:01:31;;;;;;;4.23;2.40;;;;;;;21.10;70.74;98075.09;6108322;23;20214;-92
2022/06/10 07:03:58;;;;;;;5.50;2.30;;;;;;;20.36;70.58;97940.03;6109221;23;20198;-92
2022/06/10 07:06:24;;;;;;;5.50;2.50;;;;;;;19.94;70.72;97875.34;6109375;23;20180;-92
2022/06/10 07:08:51;;;;;;;7.17;2.70;;;;;;;20.16;70.51;97906.06;6156906;23;20170;-92
2022/06/10 07:11:18;;;;;;;5.13;2.77;;;;;;;21.31;70.39;98114.28;6182490;23;20190;-92
2022/06/10 07:13:44;;;;;;;4.17;2.57;;;;;;;20.34;69.86;97944.25;6109921;23;20170;-92
2022/06/10 07:16:11;;;;;;;5.80;2.90;;;;;;;19.65;70.41;97818.06;6158071;23;20162;-92
2022/06/10 07:18:38;;;;;;;2.83;2.00;;;;;;;20.58;70.47;97973.31;6109822;23;20163;-93
2022/06/10 07:21:04;;;;;;;4.30;2.43;;;;;;;19.74;70.73;97825.19;6108591;23;20155;-91
2022/06/10 07:23:31;;;;;;;4.80;2.50;;;;;;;21.48;70.55;98126.06;6132219;23;20206;-92
2022/06/10 07:25:59;;;;;;;3.10;2.30;;;;;;;20.29;70.29;97918.53;6156433;23;20172;-93
2022/06/10 07:28:26;;;;;;;4.17;2.70;;;;;;;21.52;70.76;98147.50;6156711;23;20167;-91
2022/06/10 07:30:52;;;;;;;4.23;2.33;;;;;;;20.50;70.50;97947.47;6132193;23;20162;-92
2022/06/10 07:33:19;;;;;;;5.20;2.37;;;;;;;20.02;70.36;97867.19;6181733;23;20186;-92
2022/06/10 07:35:46;;;;;;;5.20;2.37;;;;;;;20.72;70.55;97997.72;6182664;23;20150;-92
2022/06/10 07:38:12;;;;;;;3.27;2.43;;;;;;;21.07;70.44;98048.53;6131375;23;20203;-93
2022/06/10 07:43:36;;;;;;;3.93;2.37;;;;;;;20.38;70.40;97949.53;6145539;23;20153;-92
2022/06/10 07:46:03;;;;;;;3.60;2.50;;;;;;;21.17;70.55;98069.41;6133369;23;20190;-92
2022/06/10 07:48:30;;;;;;;3.10;2.20;;;;;;;20.64;70.72;97971.00;6134081;23;20190;-92
2022/06/10 07:50:57;;;;;;;7.60;2.50;;;;;;;20.86;70.59;98000.00;6183184;23;20149;-92
2022/06/10 07:53:23;;;;;;;3.17;2.50;;;;;;;20.78;70.44;97980.09;6157849;23;20218;-91
2022/06/10 07:55:50;;;;;;;2.93;2.30;;;;;;;21.07;70.55;98033.22;6182658;23;20159;-92
2022/06/10 07:58:17;;;;;;;3.43;2.43;;;;;;;21.28;70.56;98080.06;6157880;23;20171;-92
2022/06/10 08:00:44;;;;;;;3.77;2.37;;;;;;;21.11;70.61;98046.16;6134263;23;20157;-92
2022/06/10 08:03:11;;;;;;;2.57;2.27;;;;;;;20.87;70.58;98016.22;6133322;23;20166;-91
2022/06/10 08:05:38;;;;;;;4.23;2.20;;;;;;;20.35;70.52;97918.78;6133958;23;20163;-92
2022/06/10 08:08:05;;;;;;;2.20;2.00;;;;;;;20.54;70.58;97953.59;6182984;23;20230;-92
2022/06/10 08:10:33;;;;;;;4.53;3.00;;;;;;;21.49;70.71;98129.47;6183292;23;20163;-92
2022/06/10 08:13:00;;;;;;;3.30;2.30;;;;;;;21.15;70.57;98068.50;6132784;23;20205;-91
2022/06/10 08:15:27;;;;;;;3.63;2.00;;;;;;;20.48;70.62;97931.22;6157565;23;20182;-93
2022/06/10 08:17:56;;;;;;;4.40;2.20;;;;;;;20.25;70.67;97886.00;6109632;23;20186;-92
2022/06/10 08:23:23;;;;;;;4.40;2.30;;;;;;;20.84;70.64;97982.88;6140695;23;20458;-92
2022/06/10 08:25:49;;;;;;;2.83;2.33;;;;;;;21.55;70.29;98116.91;6131955;23;20458;-93
2022/06/10 08:28:16;;;;;;;2.63;2.17;;;;;;;21.17;70.39;98054.06;6132517;23;20186;-92
2022/06/10 08:30:43;;;;;;;3.20;2.27;;;;;;;19.94;70.67;97830.31;6132207;23;20170;-93
2022/06/10 08:33:09;;;;;;;2.43;2.03;;;;;;;20.12;70.28;97858.25;6132740;23;20206;-92
2022/06/10 08:35:37;;;;;;;3.83;2.30;;;;;;;20.54;70.61;97931.44;6133016;23;20247;-92
2022/06/10 08:38:06;;;;;;;3.03;2.30;;;;;;;20.70;70.72;97967.03;6157270;23;20166;-92
2022/06/10 08:40:39;;;;;;;3.77;2.43;;;;;;;21.91;70.61;98169.56;6134132;23;20169;-92
2022/06/10 08:43:33;;;;;;;3.30;2.10;;;;;;;20.12;70.43;97887.97;6182769;23;20182;-93
2022/06/10 08:46:25;;;;;;;2.50;2.17;;;;;;;20.46;70.53;97926.88;6161090;23;20193;-92
2022/06/10 08:49:26;;;;;;;2.67;2.43;;;;;;;21.91;70.93;98163.56;6161271;23;20193;-93
2022/06/10 08:51:52;;;;;;;2.30;2.10;;;;;;;21.90;70.74;98165.22;6182495;23;20150;-92
2022/06/10 08:54:37;;;;;;;5.33;2.40;;;;;;;21.91;70.42;98161.88;6182298;23;20174;-92
2022/06/10 08:57:16;;;;;;;2.83;2.40;;;;;;;20.31;70.54;97890.50;6156549;23;20186;-92
2022/06/10 08:59:44;;;;;;;2.80;2.00;;;;;;;20.81;70.54;97993.84;6133472;23;20150;-92
2022/06/10 09:02:31;;;;;;;2.47;2.27;;;;;;;21.93;70.68;98172.19;6108904;23;20198;-91
2022/06/10 09:05:00;;;;;;;2.70;2.03;;;;;;;21.91;70.67;98172.13;6104528;23;20197;-93
2022/06/10 09:08:00;;;;;;;2.87;2.57;;;;;;;20.52;70.82;97925.41;6166805;23;20210;-92
2022/06/10 09:10:57;;;;;;;2.50;2.10;;;;;;;20.21;70.88;97875.63;6138286;23;20187;-92
2022/06/10 09:13:40;;;;;;;4.00;2.17;;;;;;;21.92;70.88;98175.53;6155417;23;20154;-93
2022/06/10 09:16:12;;;;;;;2.53;2.30;;;;;;;21.91;70.95;98174.69;6155941;23;20192;-91
2022/06/10 09:18:45;;;;;;;2.37;2.17;;;;;;;21.91;70.95;98174.69;6180579;23;20198;-92
2022/06/10 09:21:16;;;;;;;2.97;2.03;;;;;;;20.85;70.92;98011.03;6180793;23;20162;-92
2022/06/10 09:23:46;;;;;;;1.90;1.80;;;;;;;20.33;70.52;97905.06;6130291;23;20336;-91
2022/06/10 09:26:28;;;;;;;3.70;2.40;;;;;;;21.22;70.87;98059.38;6179901;23;20146;-91
2022/06/10 09:28:55;;;;;;;3.00;2.10;;;;;;;20.18;70.56;97881.50;6109282;23;20179;-92
2022/06/10 09:31:39;;;;;;;2.63;2.17;;;;;;;21.93;70.95;98180.69;6131329;23;20154;-91
2022/06/10 09:34:19;;;;;;;2.87;2.27;;;;;;;21.93;70.87;98174.72;6154718;23;20225;-91
2022/06/10 09:37:17;;;;;;;2.90;2.60;;;;;;;21.92;70.85;98178.97;6180991;23;20182;-92
2022/06/10 09:42:55;;;;;;;3.93;2.40;;;;;;;21.92;71.03;98178.09;6140517;23;20177;-92
2022/06/10 09:45:56;;;;;;;2.37;2.17;;;;;;;20.70;70.97;97982.34;6156801;23;20146;-92
2022/06/10 09:48:43;;;;;;;4.53;2.33;;;;;;;21.92;71.30;98175.53;6135586;23;20189;-92
2022/06/10 09:51:21;;;;;;;4.27;2.60;;;;;;;20.42;71.24;97936.06;6182143;23;20189;-92
2022/06/10 09:54:16;;;;;;;2.83;2.37;;;;;;;21.91;71.24;98182.34;6133984;23;20181;-92
2022/06/10 09:56:43;;;;;;;3.00;2.50;;;;;;;21.91;71.26;98182.34;6131599;23;20184;-91
2022/06/10 09:59:24;;;;;;;2.50;2.30;;;;;;;21.90;71.04;98183.16;6182475;23;20179;-91
2022/06/10 10:02:02;;;;;;;3.07;2.37;;;;;;;21.00;70.89;98027.00;6157179;23;20147;-92
2022/06/10 10:04:38;;;;;;;3.10;2.40;;;;;;;21.91;71.07;98179.78;6133306;23;20209;-91
2022/06/10 10:07:18;;;;;;;3.97;2.50;;;;;;;21.42;71.26;98102.81;6180639;23;20185;-89
2022/06/10 10:09:54;;;;;;;18.07;3.27;;;;;;;21.92;71.13;98172.97;6133993;23;20210;-90
2022/06/10 10:12:26;;;;;;;2.67;2.47;;;;;;;21.92;71.15;98178.97;6182226;23;20158;-91
2022/06/10 10:15:09;;;;;;;4.77;2.30;;;;;;;19.98;70.83;97839.84;6132340;23;20181;-90
2022/06/10 10:18:22;;;;;;;3.03;2.23;;;;;;;20.83;70.86;98009.22;6110996;23;20182;-91
2022/06/10 10:21:00;;;;;;;2.60;2.40;;;;;;;21.92;70.99;98171.28;6076649;23;20164;-90
2022/06/10 10:23:46;;;;;;;2.50;2.30;;;;;;;21.92;70.90;98171.28;6046084;23;20160;-92
2022/06/10 10:26:29;;;;;;;3.37;2.30;;;;;;;21.93;71.20;98179.84;6130698;23;20173;-92
2022/06/10 10:29:01;;;;;;;3.30;2.60;;;;;;;20.47;70.91;97944.78;6133311;23;20146;-89
2022/06/10 10:31:30;;;;;;;2.63;2.30;;;;;;;20.50;70.84;97941.47;6156259;23;20194;-90
2022/06/10 10:33:58;;;;;;;3.03;2.40;;;;;;;20.55;71.09;97956.19;6108686;23;20174;-88
2022/06/10 10:36:28;;;;;;;3.40;2.57;;;;;;;21.91;70.90;98166.13;6108161;23;20175;-91
2022/06/10 10:38:55;;;;;;;2.40;2.20;;;;;;;20.32;70.75;97889.69;6181858;23;20205;-89
2022/06/10 10:41:25;;;;;;;2.63;2.40;;;;;;;21.92;71.02;98171.28;6156987;23;20155;-90
2022/06/10 10:43:58;;;;;;;3.77;2.50;;;;;;;21.42;70.96;98109.59;6157128;23;20189;-92
2022/06/10 11:07:39;;;;;;;2.30;2.10;;;;;;;20.38;70.49;97910.34;6182985;23;20206;-92
2022/06/10 11:10:21;;;;;;;3.83;2.30;;;;;;;20.69;70.69;97959.28;6112133;23;20214;-91
2022/06/10 11:12:49;;;;;;;2.13;2.00;;;;;;;21.34;70.89;98067.50;6136240;23;20150;-90
2022/06/10 11:15:31;;;;;;;2.50;2.30;;;;;;;20.53;70.80;97944.16;6136640;23;20186;-91
2022/06/10 11:23:39;;;;;;;2.47;2.27;;;;;;;19.42;70.67;97733.81;6150052;23;20201;-91
2022/06/10 11:31:41;;;;;;;2.73;2.53;;;;;;;19.90;70.53;97819.94;6155885;23;20146;-90
2022/06/10 11:34:28;;;;;;;2.37;2.00;;;;;;;19.35;70.83;97729.25;6107804;23;20193;-91
2022/06/10 11:39:39;;;;;;;2.40;2.20;;;;;;;20.53;70.64;97929.72;6124946;23;20202;-93
2022/06/10 11:42:16;;;;;;;2.43;2.23;;;;;;;20.30;70.62;97893.84;6054271;23;20164;-92
2022/06/10 11:44:49;;;;;;;3.20;2.10;;;;;;;19.63;70.71;97789.06;6054985;23;20183;-90
2022/06/10 11:47:50;;;;;;;2.43;2.23;;;;;;;20.29;70.67;97890.47;6101999;23;20194;-90
2022/06/10 11:50:36;;;;;;;2.40;2.20;;;;;;;20.54;70.84;97934.00;6104378;23;20186;-91
2022/06/10 11:53:39;;;;;;;2.30;2.20;;;;;;;20.46;70.69;97914.09;6125196;23;20475;-91
2022/06/10 12:01:53;;;;;;;2.97;2.50;;;;;;;21.84;70.65;98139.41;6077189;23;20151;-92
2022/06/10 12:04:25;;;;;;;2.77;2.53;;;;;;;20.55;70.67;97920.44;6072177;23;20232;-91
2022/06/10 12:06:54;;;;;;;2.73;2.43;;;;;;;19.71;70.57;97784.28;6072954;23;20195;-90
2022/06/10 12:09:26;;;;;;;3.00;2.60;;;;;;;21.92;70.80;98155.06;6096422;23;20201;-91
2022/06/10 12:12:06;;;;;;;2.60;2.40;;;;;;;20.55;70.72;97919.56;6096088;23;20209;-91
2022/06/10 12:14:45;;;;;;;3.30;2.13;;;;;;;19.28;70.55;97710.31;6096018;23;20176;-91
2022/06/10 12:17:41;;;;;;;2.47;2.37;;;;;;;20.87;70.88;97965.13;6072671;23;20208;-91
2022/06/10 12:20:21;;;;;;;3.10;2.40;;;;;;;21.93;70.80;98151.69;6095604;23;20161;-90
2022/06/10 12:22:47;;;;;;;2.30;2.10;;;;;;;19.98;70.69;97812.59;6096088;23;20164;-91
2022/06/10 12:25:28;;;;;;;2.17;2.00;;;;;;;19.65;70.69;97759.41;6096227;23;20185;-92
2022/06/10 12:28:06;;;;;;;2.17;2.07;;;;;;;20.69;70.79;97951.63;6119977;23;20195;-91
2022/06/10 12:30:42;;;;;;;2.27;2.00;;;;;;;19.79;70.83;97793.13;6120006;23;20171;-92
2022/06/10 12:33:36;;;;;;;2.80;2.37;;;;;;;19.50;70.49;97727.34;6072489;23;20156;-92
2022/06/10 12:36:05;;;;;;;2.70;2.50;;;;;;;19.92;70.70;97806.44;6071070;23;20188;-91
2022/06/10 12:38:35;;;;;;;3.30;2.20;;;;;;;20.50;70.73;97918.50;6095977;23;20248;-92
2022/06/10 12:41:15;;;;;;;2.80;2.10;;;;;;;21.91;70.78;98133.72;6095877;23;20172;-91
2022/06/10 12:43:58;;;;;;;2.63;2.43;;;;;;;19.78;70.75;97776.94;6095769;23;20157;-91
2022/06/10 12:46:42;;;;;;;2.50;2.30;;;;;;;21.92;70.86;98134.59;6095587;23;20176;-90
2022/06/10 12:49:26;;;;;;;2.43;2.23;;;;;;;20.23;70.73;97861.25;6127091;23;20263;-90
2022/06/10 12:52:01;;;;;;;2.53;2.33;;;;;;;21.60;70.69;98089.84;6105407;23;20175;-90
2022/06/10 12:54:39;;;;;;;2.30;2.17;;;;;;;20.06;70.47;97816.28;6128341;23;20178;-90
2022/06/10 12:57:27;;;;;;;3.30;2.60;;;;;;;21.91;70.80;98130.28;6128060;23;20222;-90
2022/06/10 13:00:40;;;;;;;3.27;2.40;;;;;;;21.91;70.81;98132.84;6152820;23;20183;-90
2022/06/10 13:03:13;;;;;;;2.53;2.33;;;;;;;21.90;70.93;98129.41;5989944;23;20181;-90
2022/06/10 13:05:40;;;;;;;2.50;2.30;;;;;;;21.90;70.75;98126.00;6035750;23;20166;-90
2022/06/10 13:08:35;;;;;;;2.57;2.20;;;;;;;21.90;70.85;98128.56;6102867;23;20191;-91
2022/06/10 13:11:03;;;;;;;2.80;2.50;;;;;;;20.30;70.67;97841.13;6152687;23;20159;-91
2022/06/10 13:13:30;;;;;;;2.43;2.23;;;;;;;21.32;70.79;98024.00;6151592;23;20214;-90
2022/06/10 13:16:34;;;;;;;2.47;2.27;;;;;;;21.91;70.69;98120.94;6151794;23;20223;-91
2022/06/10 13:19:02;;;;;;;2.30;2.20;;;;;;;21.17;70.33;97994.44;6127750;23;20193;-90
2022/06/10 13:21:32;;;;;;;2.40;2.20;;;;;;;20.05;70.66;97784.84;6127648;23;20167;-89
2022/06/10 13:24:02;;;;;;;2.60;2.40;;;;;;;21.91;70.81;98100.47;6151393;23;20182;-90